SJV680 WIII-WIOO
Flight info
| Callsign | SJV680 |
|---|---|
| Flight time | 1h 19m |
| Altitude | 33000 |
| Route | ABASA W14 LAKUN |
| Aircraft | A320/M-SDE3FGHIRWY/LB1 |
Departure
| Time | 2026-04-25 04:40 |
|---|---|
| Airport | Soekarno-Hatta International Airport (WIII) |
Arrival
| Time | 2026-04-25 05:59 |
|---|---|
| Airport | Supadio International Airport (WIOO) |
| Time | Latitude | Longitude | Altitude | Speed | Heading |
|---|---|---|---|---|---|
| 2026-04-25 04:06 | -6.11949 | 106.65171 | 38 ft | 0 kts | 191° |
| 2026-04-25 04:29 | -6.11948 | 106.65171 | 0 ft | 2 kts | 191° |
| 2026-04-25 04:29 | -6.11925 | 106.65179 | 27 ft | 4 kts | 211° |
| 2026-04-25 04:30 | -6.11901 | 106.65192 | 34 ft | 4 kts | 197° |
| 2026-04-25 04:30 | -6.11876 | 106.65200 | 37 ft | 4 kts | 213° |
| 2026-04-25 04:30 | -6.11860 | 106.65218 | 36 ft | 2 kts | 248° |
| 2026-04-25 04:30 | -6.11859 | 106.65219 | 36 ft | 0 kts | 248° |
| 2026-04-25 04:33 | -6.11862 | 106.65214 | 0 ft | 2 kts | 248° |
| 2026-04-25 04:33 | -6.11869 | 106.65196 | 6 ft | 4 kts | 248° |
| 2026-04-25 04:34 | -6.11880 | 106.65167 | 19 ft | 5 kts | 248° |
| 2026-04-25 04:34 | -6.11894 | 106.65126 | 38 ft | 7 kts | 252° |
| 2026-04-25 04:34 | -6.11910 | 106.65074 | 38 ft | 9 kts | 251° |
| 2026-04-25 04:34 | -6.11913 | 106.65011 | 36 ft | 10 kts | 304° |
| 2026-04-25 04:35 | -6.11865 | 106.64956 | 38 ft | 11 kts | 282° |
| 2026-04-25 04:35 | -6.11891 | 106.64876 | 38 ft | 13 kts | 249° |
| 2026-04-25 04:35 | -6.11928 | 106.64786 | 38 ft | 15 kts | 248° |
| 2026-04-25 04:35 | -6.11969 | 106.64684 | 38 ft | 17 kts | 248° |
| 2026-04-25 04:36 | -6.12014 | 106.64570 | 38 ft | 19 kts | 248° |
| 2026-04-25 04:36 | -6.12064 | 106.64442 | 36 ft | 21 kts | 249° |
| 2026-04-25 04:36 | -6.12120 | 106.64303 | 36 ft | 22 kts | 249° |
| 2026-04-25 04:36 | -6.12181 | 106.64153 | 37 ft | 24 kts | 248° |
| 2026-04-25 04:37 | -6.12234 | 106.64017 | 37 ft | 12 kts | 249° |
| 2026-04-25 04:37 | -6.12258 | 106.63948 | 38 ft | 11 kts | 258° |
| 2026-04-25 04:37 | -6.12236 | 106.63899 | 37 ft | 6 kts | 321° |
| 2026-04-25 04:37 | -6.12212 | 106.63887 | 39 ft | 3 kts | 341° |
| 2026-04-25 04:38 | -6.12189 | 106.63884 | 39 ft | 4 kts | 359° |
| 2026-04-25 04:38 | -6.12154 | 106.63890 | 39 ft | 6 kts | 12° |
| 2026-04-25 04:38 | -6.12122 | 106.63896 | 39 ft | 6 kts | 11° |
| 2026-04-25 04:38 | -6.12093 | 106.63895 | 38 ft | 4 kts | 7° |
| 2026-04-25 04:39 | -6.12075 | 106.63919 | 38 ft | 4 kts | 67° |
| 2026-04-25 04:39 | -6.12059 | 106.63958 | 38 ft | 12 kts | 67° |
| 2026-04-25 04:39 | -6.11938 | 106.64266 | 36 ft | 81 kts | 68° |
| 2026-04-25 04:39 | -6.11660 | 106.64967 | 40 ft | 132 kts | 68° |
| 2026-04-25 04:40 | -6.11268 | 106.65947 | 46 ft | 171 kts | 68° |
| 2026-04-25 04:40 | -6.10821 | 106.67054 | 633 ft | 170 kts | 67° |
| 2026-04-25 04:40 | -6.10369 | 106.68162 | 1360 ft | 172 kts | 57° |
| 2026-04-25 04:40 | -6.09615 | 106.69097 | 2082 ft | 170 kts | 46° |
| 2026-04-25 04:41 | -6.08747 | 106.69979 | 2492 ft | 187 kts | 43° |
| 2026-04-25 04:41 | -6.07761 | 106.70938 | 2799 ft | 208 kts | 44° |
| 2026-04-25 04:41 | -6.06686 | 106.72007 | 3133 ft | 226 kts | 45° |
| 2026-04-25 04:41 | -6.05569 | 106.73139 | 3779 ft | 230 kts | 46° |
| 2026-04-25 04:42 | -6.04446 | 106.74288 | 4497 ft | 231 kts | 47° |
| 2026-04-25 04:42 | -6.03198 | 106.75355 | 5083 ft | 240 kts | 36° |
| 2026-04-25 04:42 | -6.01817 | 106.76290 | 5840 ft | 240 kts | 35° |
| 2026-04-25 04:42 | -6.00423 | 106.77221 | 6551 ft | 242 kts | 34° |
| 2026-04-25 04:43 | -5.99012 | 106.78146 | 7263 ft | 243 kts | 34° |
| 2026-04-25 04:43 | -5.97573 | 106.79076 | 7881 ft | 249 kts | 34° |
| 2026-04-25 04:43 | -5.96110 | 106.80045 | 8505 ft | 254 kts | 34° |
| 2026-04-25 04:43 | -5.94639 | 106.81050 | 9153 ft | 258 kts | 34° |
| 2026-04-25 04:44 | -5.93154 | 106.82067 | 9844 ft | 259 kts | 34° |
| 2026-04-25 04:44 | -5.91674 | 106.83085 | 10432 ft | 267 kts | 34° |
| 2026-04-25 04:44 | -5.90080 | 106.84189 | 10595 ft | 290 kts | 35° |
| 2026-04-25 04:44 | -5.88367 | 106.85398 | 10731 ft | 312 kts | 35° |
| 2026-04-25 04:45 | -5.86534 | 106.86699 | 10861 ft | 333 kts | 35° |
| 2026-04-25 04:45 | -5.84606 | 106.88064 | 11224 ft | 343 kts | 35° |
| 2026-04-25 04:45 | -5.82643 | 106.89451 | 11778 ft | 347 kts | 35° |
| 2026-04-25 04:45 | -5.80658 | 106.90849 | 12344 ft | 350 kts | 35° |
| 2026-04-25 04:46 | -5.78658 | 106.92252 | 12900 ft | 353 kts | 35° |
| 2026-04-25 04:46 | -5.76583 | 106.93580 | 13433 ft | 355 kts | 25° |
| 2026-04-25 04:46 | -5.74273 | 106.94481 | 13957 ft | 358 kts | 20° |
| 2026-04-25 04:46 | -5.71921 | 106.95337 | 14480 ft | 360 kts | 20° |
| 2026-04-25 04:47 | -5.69557 | 106.96189 | 15000 ft | 363 kts | 20° |
| 2026-04-25 04:47 | -5.67183 | 106.97082 | 15498 ft | 365 kts | 21° |
| 2026-04-25 04:47 | -5.64812 | 106.98022 | 15992 ft | 368 kts | 22° |
| 2026-04-25 04:47 | -5.62436 | 106.98985 | 16495 ft | 370 kts | 22° |
| 2026-04-25 04:48 | -5.60036 | 106.99963 | 16950 ft | 373 kts | 22° |
| 2026-04-25 04:48 | -5.57624 | 107.00946 | 17421 ft | 376 kts | 22° |
| 2026-04-25 04:48 | -5.55190 | 107.01933 | 17881 ft | 378 kts | 22° |
| 2026-04-25 04:48 | -5.52738 | 107.02921 | 18329 ft | 381 kts | 22° |
| 2026-04-25 04:49 | -5.50274 | 107.03910 | 18769 ft | 383 kts | 22° |
| 2026-04-25 04:49 | -5.47791 | 107.04904 | 19202 ft | 386 kts | 22° |
| 2026-04-25 04:49 | -5.45289 | 107.05907 | 19611 ft | 389 kts | 22° |
| 2026-04-25 04:49 | -5.42761 | 107.06920 | 20020 ft | 392 kts | 22° |
| 2026-04-25 04:50 | -5.40257 | 107.07920 | 20426 ft | 394 kts | 22° |
| 2026-04-25 04:50 | -5.37703 | 107.08940 | 20832 ft | 397 kts | 22° |
| 2026-04-25 04:50 | -5.35129 | 107.09970 | 21226 ft | 399 kts | 22° |
| 2026-04-25 04:50 | -5.32538 | 107.11007 | 21591 ft | 402 kts | 22° |
| 2026-04-25 04:51 | -5.29933 | 107.12049 | 21962 ft | 404 kts | 22° |
| 2026-04-25 04:51 | -5.27312 | 107.13096 | 22331 ft | 407 kts | 22° |
| 2026-04-25 04:51 | -5.24670 | 107.14154 | 22692 ft | 409 kts | 22° |
| 2026-04-25 04:51 | -5.22018 | 107.15216 | 23039 ft | 411 kts | 22° |
| 2026-04-25 04:52 | -5.19353 | 107.16284 | 23373 ft | 414 kts | 22° |
| 2026-04-25 04:52 | -5.16670 | 107.17358 | 23687 ft | 416 kts | 22° |
| 2026-04-25 04:52 | -5.13972 | 107.18438 | 24007 ft | 419 kts | 22° |
| 2026-04-25 04:52 | -5.11259 | 107.19525 | 24315 ft | 421 kts | 22° |
| 2026-04-25 04:53 | -5.08534 | 107.20618 | 24623 ft | 423 kts | 22° |
| 2026-04-25 04:53 | -5.05789 | 107.21716 | 24845 ft | 425 kts | 22° |
| 2026-04-25 04:53 | -5.03035 | 107.22814 | 24892 ft | 426 kts | 22° |
| 2026-04-25 04:53 | -5.00315 | 107.23899 | 24892 ft | 427 kts | 22° |
| 2026-04-25 04:54 | -4.97556 | 107.24999 | 24893 ft | 427 kts | 22° |
| 2026-04-25 04:54 | -4.94767 | 107.26054 | 24893 ft | 429 kts | 17° |
| 2026-04-25 04:54 | -4.91854 | 107.26752 | 25095 ft | 432 kts | 12° |
| 2026-04-25 04:54 | -4.88907 | 107.27395 | 25404 ft | 434 kts | 12° |
| 2026-04-25 04:55 | -4.85950 | 107.28051 | 25694 ft | 437 kts | 13° |
| 2026-04-25 04:55 | -4.82973 | 107.28721 | 25977 ft | 439 kts | 13° |
| 2026-04-25 04:55 | -4.79985 | 107.29392 | 26243 ft | 442 kts | 12° |
| 2026-04-25 04:55 | -4.76975 | 107.30068 | 26517 ft | 444 kts | 12° |
| 2026-04-25 04:56 | -4.73963 | 107.30742 | 26800 ft | 445 kts | 12° |
| 2026-04-25 04:56 | -4.70929 | 107.31419 | 27086 ft | 447 kts | 12° |
| 2026-04-25 04:56 | -4.67888 | 107.32094 | 27342 ft | 449 kts | 12° |
| 2026-04-25 04:56 | -4.64831 | 107.32767 | 27581 ft | 451 kts | 12° |
| 2026-04-25 04:57 | -4.61756 | 107.33447 | 27821 ft | 453 kts | 12° |
| 2026-04-25 04:57 | -4.58665 | 107.34136 | 28063 ft | 456 kts | 12° |
| 2026-04-25 04:57 | -4.55566 | 107.34824 | 28306 ft | 457 kts | 12° |
| 2026-04-25 04:57 | -4.52451 | 107.35516 | 28540 ft | 460 kts | 12° |
| 2026-04-25 04:58 | -4.49318 | 107.36212 | 28743 ft | 462 kts | 13° |
| 2026-04-25 04:58 | -4.46170 | 107.36911 | 28985 ft | 464 kts | 13° |
| 2026-04-25 04:58 | -4.43054 | 107.37606 | 29242 ft | 466 kts | 13° |
| 2026-04-25 04:58 | -4.39888 | 107.38309 | 29483 ft | 467 kts | 13° |
| 2026-04-25 04:59 | -4.36703 | 107.39016 | 29708 ft | 469 kts | 13° |
| 2026-04-25 04:59 | -4.33513 | 107.39727 | 29927 ft | 471 kts | 13° |
| 2026-04-25 04:59 | -4.30301 | 107.40442 | 30143 ft | 473 kts | 13° |
| 2026-04-25 04:59 | -4.27081 | 107.41157 | 30391 ft | 474 kts | 13° |
| 2026-04-25 05:00 | -4.23859 | 107.41871 | 30722 ft | 473 kts | 13° |
| 2026-04-25 05:00 | -4.20648 | 107.42582 | 31084 ft | 472 kts | 13° |
| 2026-04-25 05:00 | -4.17445 | 107.43290 | 31434 ft | 470 kts | 13° |
| 2026-04-25 05:00 | -4.14254 | 107.43997 | 31766 ft | 469 kts | 13° |
| 2026-04-25 05:01 | -4.11067 | 107.44703 | 32130 ft | 468 kts | 13° |
| 2026-04-25 05:01 | -4.07897 | 107.45407 | 32479 ft | 466 kts | 13° |
| 2026-04-25 05:01 | -4.04734 | 107.46109 | 32793 ft | 465 kts | 13° |
| 2026-04-25 05:02 | -3.98454 | 107.47498 | 32898 ft | 459 kts | 13° |
| 2026-04-25 05:02 | -3.92226 | 107.48880 | 32896 ft | 457 kts | 13° |
| 2026-04-25 05:03 | -3.86022 | 107.50260 | 32898 ft | 456 kts | 12° |
| 2026-04-25 05:03 | -3.79828 | 107.51630 | 32894 ft | 455 kts | 12° |
| 2026-04-25 05:04 | -3.73697 | 107.52987 | 32900 ft | 454 kts | 12° |
| 2026-04-25 05:04 | -3.67529 | 107.54355 | 32901 ft | 454 kts | 12° |
| 2026-04-25 05:05 | -3.61363 | 107.55719 | 32905 ft | 454 kts | 12° |
| 2026-04-25 05:05 | -3.55193 | 107.57078 | 32896 ft | 454 kts | 12° |
| 2026-04-25 05:06 | -3.49014 | 107.58443 | 32908 ft | 454 kts | 12° |
| 2026-04-25 05:06 | -3.42838 | 107.59803 | 32906 ft | 454 kts | 12° |
| 2026-04-25 05:07 | -3.36667 | 107.61169 | 32901 ft | 454 kts | 12° |
| 2026-04-25 05:07 | -3.30490 | 107.62533 | 32903 ft | 454 kts | 12° |
| 2026-04-25 05:08 | -3.24351 | 107.63889 | 32902 ft | 454 kts | 12° |
| 2026-04-25 05:08 | -3.18176 | 107.65247 | 32914 ft | 454 kts | 12° |
| 2026-04-25 05:09 | -3.12019 | 107.66603 | 32907 ft | 453 kts | 12° |
| 2026-04-25 05:09 | -3.05862 | 107.67961 | 32904 ft | 453 kts | 12° |
| 2026-04-25 05:10 | -2.99755 | 107.69306 | 32905 ft | 453 kts | 12° |
| 2026-04-25 05:10 | -2.93600 | 107.70664 | 32905 ft | 453 kts | 12° |
| 2026-04-25 05:11 | -2.87436 | 107.72023 | 32910 ft | 453 kts | 12° |
| 2026-04-25 05:11 | -2.81280 | 107.73382 | 32899 ft | 453 kts | 12° |
| 2026-04-25 05:12 | -2.72142 | 107.75741 | 32905 ft | 453 kts | 24° |
| 2026-04-25 05:12 | -2.66687 | 107.78868 | 32899 ft | 452 kts | 32° |
| 2026-04-25 05:13 | -2.61395 | 107.82121 | 32919 ft | 447 kts | 32° |
| 2026-04-25 05:13 | -2.56096 | 107.85373 | 32919 ft | 446 kts | 32° |
| 2026-04-25 05:14 | -2.50809 | 107.88608 | 32919 ft | 446 kts | 32° |
| 2026-04-25 05:15 | -2.42874 | 107.93470 | 32920 ft | 446 kts | 32° |
| 2026-04-25 05:15 | -2.37584 | 107.96707 | 32921 ft | 446 kts | 32° |
| 2026-04-25 05:16 | -2.33597 | 107.99153 | 32925 ft | 446 kts | 32° |
| 2026-04-25 05:16 | -2.28309 | 108.02403 | 32929 ft | 446 kts | 32° |
| 2026-04-25 05:17 | -2.23047 | 108.05625 | 32933 ft | 446 kts | 32° |
| 2026-04-25 05:17 | -2.17722 | 108.08890 | 32935 ft | 446 kts | 32° |
| 2026-04-25 05:18 | -2.12427 | 108.12140 | 32940 ft | 446 kts | 33° |
| 2026-04-25 05:18 | -2.07146 | 108.15374 | 32946 ft | 444 kts | 32° |
| 2026-04-25 05:19 | -2.01876 | 108.18603 | 32946 ft | 443 kts | 32° |
| 2026-04-25 05:19 | -1.96659 | 108.21808 | 32944 ft | 442 kts | 33° |
| 2026-04-25 05:20 | -1.91424 | 108.25027 | 32942 ft | 442 kts | 32° |
| 2026-04-25 05:20 | -1.86182 | 108.28241 | 32942 ft | 441 kts | 32° |
| 2026-04-25 05:21 | -1.80946 | 108.31444 | 32937 ft | 441 kts | 32° |
| 2026-04-25 05:21 | -1.75712 | 108.34652 | 32935 ft | 441 kts | 32° |
| 2026-04-25 05:22 | -1.70491 | 108.37863 | 32933 ft | 441 kts | 33° |
| 2026-04-25 05:22 | -1.65268 | 108.41073 | 32932 ft | 441 kts | 32° |
| 2026-04-25 05:23 | -1.60921 | 108.43735 | 32933 ft | 441 kts | 33° |
| 2026-04-25 05:23 | -1.55691 | 108.46938 | 32940 ft | 440 kts | 33° |
| 2026-04-25 05:24 | -1.50467 | 108.50138 | 32939 ft | 440 kts | 33° |
| 2026-04-25 05:24 | -1.45258 | 108.53335 | 32937 ft | 439 kts | 33° |
| 2026-04-25 05:25 | -1.40056 | 108.56528 | 32924 ft | 438 kts | 33° |
| 2026-04-25 05:25 | -1.37475 | 108.58109 | 32604 ft | 432 kts | 33° |
| 2026-04-25 05:25 | -1.34907 | 108.59679 | 32122 ft | 435 kts | 33° |
| 2026-04-25 05:25 | -1.32286 | 108.61287 | 31614 ft | 448 kts | 33° |
| 2026-04-25 05:26 | -1.29607 | 108.62930 | 31117 ft | 457 kts | 32° |
| 2026-04-25 05:26 | -1.26885 | 108.64596 | 30600 ft | 460 kts | 32° |
| 2026-04-25 05:26 | -1.24129 | 108.66285 | 30096 ft | 468 kts | 32° |
| 2026-04-25 05:26 | -1.21346 | 108.67990 | 29591 ft | 469 kts | 32° |
| 2026-04-25 05:27 | -1.18568 | 108.69693 | 29094 ft | 467 kts | 32° |
| 2026-04-25 05:27 | -1.15827 | 108.71376 | 28608 ft | 472 kts | 32° |
| 2026-04-25 05:27 | -1.13026 | 108.73097 | 28118 ft | 473 kts | 32° |
| 2026-04-25 05:27 | -1.10228 | 108.74816 | 27631 ft | 470 kts | 32° |
| 2026-04-25 05:28 | -1.07440 | 108.76527 | 27152 ft | 473 kts | 32° |
| 2026-04-25 05:28 | -1.04625 | 108.78253 | 26655 ft | 475 kts | 32° |
| 2026-04-25 05:28 | -1.01786 | 108.79990 | 26162 ft | 482 kts | 32° |
| 2026-04-25 05:28 | -0.98928 | 108.81737 | 25651 ft | 482 kts | 32° |
| 2026-04-25 05:29 | -0.96072 | 108.83485 | 25128 ft | 479 kts | 32° |
| 2026-04-25 05:29 | -0.93239 | 108.85220 | 24585 ft | 475 kts | 32° |
| 2026-04-25 05:29 | -0.90434 | 108.86936 | 24054 ft | 474 kts | 32° |
| 2026-04-25 05:29 | -0.87577 | 108.88618 | 23491 ft | 478 kts | 26° |
| 2026-04-25 05:30 | -0.84502 | 108.89860 | 22905 ft | 476 kts | 21° |
| 2026-04-25 05:30 | -0.81406 | 108.91015 | 22329 ft | 473 kts | 21° |
| 2026-04-25 05:30 | -0.78332 | 108.92145 | 21749 ft | 469 kts | 21° |
| 2026-04-25 05:30 | -0.75280 | 108.93259 | 21165 ft | 465 kts | 20° |
| 2026-04-25 05:31 | -0.72246 | 108.94365 | 20590 ft | 462 kts | 21° |
| 2026-04-25 05:31 | -0.69244 | 108.95465 | 20008 ft | 458 kts | 21° |
| 2026-04-25 05:31 | -0.66269 | 108.96561 | 19445 ft | 454 kts | 21° |
| 2026-04-25 05:31 | -0.63319 | 108.97651 | 18924 ft | 450 kts | 21° |
| 2026-04-25 05:32 | -0.60425 | 108.98720 | 18425 ft | 448 kts | 21° |
| 2026-04-25 05:32 | -0.57514 | 108.99792 | 17856 ft | 444 kts | 21° |
| 2026-04-25 05:32 | -0.54623 | 109.00855 | 17258 ft | 440 kts | 21° |
| 2026-04-25 05:32 | -0.51765 | 109.01909 | 16633 ft | 436 kts | 21° |
| 2026-04-25 05:33 | -0.48929 | 109.02958 | 16007 ft | 433 kts | 21° |
| 2026-04-25 05:33 | -0.46113 | 109.03999 | 15380 ft | 429 kts | 21° |
| 2026-04-25 05:33 | -0.43330 | 109.05028 | 14755 ft | 425 kts | 21° |
| 2026-04-25 05:33 | -0.40564 | 109.06049 | 14125 ft | 421 kts | 21° |
| 2026-04-25 05:34 | -0.37823 | 109.07062 | 13504 ft | 417 kts | 21° |
| 2026-04-25 05:34 | -0.35175 | 109.08038 | 12894 ft | 413 kts | 21° |
| 2026-04-25 05:34 | -0.32487 | 109.09027 | 12269 ft | 409 kts | 21° |
| 2026-04-25 05:34 | -0.29830 | 109.10003 | 11642 ft | 405 kts | 21° |
| 2026-04-25 05:35 | -0.27202 | 109.10970 | 11143 ft | 397 kts | 21° |
| 2026-04-25 05:35 | -0.24668 | 109.11905 | 10983 ft | 378 kts | 21° |
| 2026-04-25 05:35 | -0.22269 | 109.12766 | 11002 ft | 352 kts | 17° |
| 2026-04-25 05:35 | -0.19963 | 109.13219 | 10910 ft | 325 kts | 10° |
| 2026-04-25 05:36 | -0.17838 | 109.13562 | 10769 ft | 304 kts | 10° |
| 2026-04-25 05:36 | -0.15782 | 109.13893 | 10364 ft | 295 kts | 10° |
| 2026-04-25 05:36 | -0.13769 | 109.14216 | 9854 ft | 292 kts | 10° |
| 2026-04-25 05:36 | -0.11774 | 109.14535 | 9321 ft | 289 kts | 10° |
| 2026-04-25 05:37 | -0.09800 | 109.14849 | 8736 ft | 286 kts | 10° |
| 2026-04-25 05:37 | -0.07840 | 109.15161 | 8172 ft | 284 kts | 10° |
| 2026-04-25 05:37 | -0.05901 | 109.15473 | 7622 ft | 281 kts | 10° |
| 2026-04-25 05:37 | -0.03972 | 109.15783 | 7183 ft | 280 kts | 10° |
| 2026-04-25 05:38 | -0.02088 | 109.16223 | 6770 ft | 277 kts | 24° |
| 2026-04-25 05:38 | -0.00468 | 109.17219 | 6366 ft | 273 kts | 43° |
| 2026-04-25 05:38 | 0.00699 | 109.18664 | 5970 ft | 264 kts | 62° |
| 2026-04-25 05:38 | 0.01411 | 109.20320 | 5574 ft | 256 kts | 68° |
| 2026-04-25 05:39 | 0.02063 | 109.21954 | 5194 ft | 250 kts | 68° |
| 2026-04-25 05:39 | 0.02704 | 109.23553 | 4826 ft | 246 kts | 68° |
| 2026-04-25 05:39 | 0.03339 | 109.25137 | 4454 ft | 245 kts | 68° |
| 2026-04-25 05:39 | 0.03965 | 109.26688 | 4085 ft | 244 kts | 68° |
| 2026-04-25 05:40 | 0.04474 | 109.28293 | 3721 ft | 242 kts | 82° |
| 2026-04-25 05:40 | 0.04454 | 109.29949 | 3372 ft | 236 kts | 101° |
| 2026-04-25 05:40 | 0.03912 | 109.31462 | 3042 ft | 229 kts | 120° |
| 2026-04-25 05:40 | 0.02957 | 109.32668 | 3001 ft | 214 kts | 138° |
| 2026-04-25 05:41 | 0.01775 | 109.33506 | 3009 ft | 207 kts | 153° |
| 2026-04-25 05:41 | 0.00458 | 109.34065 | 2978 ft | 206 kts | 158° |
| 2026-04-25 05:41 | -0.00870 | 109.34606 | 2775 ft | 205 kts | 157° |
| 2026-04-25 05:41 | -0.02193 | 109.35145 | 2519 ft | 206 kts | 158° |
| 2026-04-25 05:42 | -0.03506 | 109.35680 | 2276 ft | 202 kts | 158° |
| 2026-04-25 05:42 | -0.04782 | 109.36199 | 1996 ft | 192 kts | 157° |
| 2026-04-25 05:42 | -0.05965 | 109.36680 | 1746 ft | 177 kts | 157° |
| 2026-04-25 05:42 | -0.07057 | 109.37124 | 1531 ft | 160 kts | 157° |
| 2026-04-25 05:43 | -0.08045 | 109.37527 | 1313 ft | 149 kts | 157° |
| 2026-04-25 05:43 | -0.08991 | 109.37911 | 1121 ft | 145 kts | 157° |
| 2026-04-25 05:43 | -0.09917 | 109.38288 | 915 ft | 143 kts | 158° |
| 2026-04-25 05:43 | -0.10837 | 109.38663 | 731 ft | 142 kts | 158° |
| 2026-04-25 05:44 | -0.11739 | 109.39030 | 573 ft | 142 kts | 158° |
| 2026-04-25 05:44 | -0.12652 | 109.39403 | 367 ft | 142 kts | 158° |
| 2026-04-25 05:44 | -0.13566 | 109.39777 | 195 ft | 142 kts | 159° |
| 2026-04-25 05:44 | -0.14480 | 109.40144 | 47 ft | 136 kts | 159° |
| 2026-04-25 05:45 | -0.15309 | 109.40459 | 86 ft | 134 kts | 159° |
| 2026-04-25 05:45 | -0.16182 | 109.40822 | 688 ft | 140 kts | 158° |
| 2026-04-25 05:45 | -0.17110 | 109.41204 | 1326 ft | 148 kts | 160° |
| 2026-04-25 05:45 | -0.18096 | 109.41598 | 1841 ft | 154 kts | 159° |
| 2026-04-25 05:46 | -0.19089 | 109.41996 | 2365 ft | 154 kts | 159° |
| 2026-04-25 05:46 | -0.20127 | 109.42283 | 2701 ft | 163 kts | 184° |
| 2026-04-25 05:46 | -0.21202 | 109.41817 | 2856 ft | 182 kts | 226° |
| 2026-04-25 05:46 | -0.21754 | 109.40651 | 2993 ft | 194 kts | 264° |
| 2026-04-25 05:47 | -0.21449 | 109.39349 | 3004 ft | 203 kts | 302° |
| 2026-04-25 05:47 | -0.20435 | 109.38270 | 2991 ft | 220 kts | 318° |
| 2026-04-25 05:47 | -0.19196 | 109.37351 | 2997 ft | 224 kts | 328° |
| 2026-04-25 05:47 | -0.17856 | 109.36559 | 3002 ft | 224 kts | 330° |
| 2026-04-25 05:48 | -0.16501 | 109.35784 | 3007 ft | 224 kts | 330° |
| 2026-04-25 05:48 | -0.15148 | 109.35014 | 3010 ft | 224 kts | 330° |
| 2026-04-25 05:48 | -0.13738 | 109.34357 | 3002 ft | 224 kts | 348° |
| 2026-04-25 05:48 | -0.12201 | 109.34140 | 3007 ft | 223 kts | 353° |
| 2026-04-25 05:49 | -0.10661 | 109.33949 | 3008 ft | 223 kts | 353° |
| 2026-04-25 05:49 | -0.09109 | 109.33756 | 3010 ft | 230 kts | 353° |
| 2026-04-25 05:49 | -0.07529 | 109.33558 | 3008 ft | 234 kts | 352° |
| 2026-04-25 05:49 | -0.05914 | 109.33353 | 3008 ft | 234 kts | 352° |
| 2026-04-25 05:50 | -0.04297 | 109.33148 | 3007 ft | 234 kts | 353° |
| 2026-04-25 05:50 | -0.02682 | 109.32942 | 3005 ft | 234 kts | 352° |
| 2026-04-25 05:50 | -0.01065 | 109.32737 | 3006 ft | 234 kts | 352° |
| 2026-04-25 05:50 | 0.00552 | 109.32533 | 3008 ft | 234 kts | 352° |
| 2026-04-25 05:51 | 0.02166 | 109.32328 | 3006 ft | 234 kts | 352° |
| 2026-04-25 05:51 | 0.03779 | 109.32125 | 3007 ft | 234 kts | 352° |
| 2026-04-25 05:51 | 0.05396 | 109.31922 | 3005 ft | 234 kts | 352° |
| 2026-04-25 05:51 | 0.07012 | 109.31721 | 3007 ft | 234 kts | 353° |
| 2026-04-25 05:52 | 0.08627 | 109.31519 | 3007 ft | 234 kts | 352° |
| 2026-04-25 05:52 | 0.10241 | 109.31315 | 3007 ft | 234 kts | 352° |
| 2026-04-25 05:52 | 0.11859 | 109.31109 | 3007 ft | 234 kts | 353° |
| 2026-04-25 05:52 | 0.13479 | 109.31085 | 3000 ft | 234 kts | 17° |
| 2026-04-25 05:53 | 0.14793 | 109.31982 | 3008 ft | 233 kts | 56° |
| 2026-04-25 05:53 | 0.15211 | 109.33517 | 3007 ft | 234 kts | 97° |
| 2026-04-25 05:53 | 0.14539 | 109.34953 | 3006 ft | 234 kts | 137° |
| 2026-04-25 05:53 | 0.13086 | 109.35619 | 3005 ft | 234 kts | 179° |
| 2026-04-25 05:54 | 0.11465 | 109.35446 | 3009 ft | 236 kts | 188° |
| 2026-04-25 05:54 | 0.09833 | 109.35214 | 3007 ft | 236 kts | 188° |
| 2026-04-25 05:54 | 0.06595 | 109.34766 | 3007 ft | 236 kts | 188° |
| 2026-04-25 05:55 | 0.04962 | 109.34541 | 3007 ft | 237 kts | 188° |
| 2026-04-25 05:55 | 0.03337 | 109.34317 | 3004 ft | 234 kts | 188° |
| 2026-04-25 05:55 | 0.01773 | 109.34109 | 3005 ft | 219 kts | 185° |
| 2026-04-25 05:55 | 0.00300 | 109.34244 | 2950 ft | 210 kts | 165° |
| 2026-04-25 05:56 | -0.01077 | 109.34702 | 2741 ft | 208 kts | 159° |
| 2026-04-25 05:56 | -0.02420 | 109.35237 | 2476 ft | 208 kts | 158° |
| 2026-04-25 05:56 | -0.03753 | 109.35780 | 2221 ft | 204 kts | 158° |
| 2026-04-25 05:56 | -0.05045 | 109.36306 | 1940 ft | 195 kts | 157° |
| 2026-04-25 05:57 | -0.06268 | 109.36804 | 1692 ft | 183 kts | 157° |
| 2026-04-25 05:57 | -0.07399 | 109.37263 | 1454 ft | 168 kts | 157° |
| 2026-04-25 05:57 | -0.08417 | 109.37678 | 1249 ft | 151 kts | 157° |
| 2026-04-25 05:57 | -0.09371 | 109.38066 | 1046 ft | 145 kts | 157° |
| 2026-04-25 05:58 | -0.10296 | 109.38443 | 851 ft | 143 kts | 157° |
| 2026-04-25 05:58 | -0.11212 | 109.38815 | 666 ft | 142 kts | 158° |
| 2026-04-25 05:58 | -0.12121 | 109.39186 | 482 ft | 141 kts | 158° |
| 2026-04-25 05:58 | -0.13018 | 109.39554 | 285 ft | 141 kts | 158° |
| 2026-04-25 05:59 | -0.13938 | 109.39928 | 110 ft | 141 kts | 159° |
| 2026-04-25 05:59 | -0.14828 | 109.40280 | 34 ft | 127 kts | 159° |
| 2026-04-25 05:59 | -0.15510 | 109.40562 | 30 ft | 82 kts | 158° |
| 2026-04-25 05:59 | -0.15870 | 109.40709 | 29 ft | 22 kts | 157° |
| 2026-04-25 06:00 | -0.15940 | 109.40752 | 30 ft | 9 kts | 134° |
| 2026-04-25 06:00 | -0.15975 | 109.40766 | 30 ft | 2 kts | 242° |
| 2026-04-25 06:00 | -0.15961 | 109.40749 | 30 ft | 4 kts | 320° |
| 2026-04-25 06:00 | -0.15933 | 109.40733 | 29 ft | 6 kts | 336° |
| 2026-04-25 06:01 | -0.15892 | 109.40716 | 29 ft | 7 kts | 338° |
| 2026-04-25 06:01 | -0.15842 | 109.40696 | 29 ft | 8 kts | 338° |
| 2026-04-25 06:01 | -0.15788 | 109.40674 | 30 ft | 9 kts | 338° |
| 2026-04-25 06:01 | -0.15733 | 109.40651 | 30 ft | 9 kts | 338° |
| 2026-04-25 06:02 | -0.15673 | 109.40627 | 30 ft | 10 kts | 338° |
| 2026-04-25 06:02 | -0.15607 | 109.40600 | 30 ft | 11 kts | 338° |
| 2026-04-25 06:02 | -0.15533 | 109.40569 | 30 ft | 12 kts | 338° |
| 2026-04-25 06:02 | -0.15451 | 109.40536 | 31 ft | 13 kts | 339° |
| 2026-04-25 06:03 | -0.15364 | 109.40501 | 32 ft | 14 kts | 338° |
| 2026-04-25 06:03 | -0.15271 | 109.40463 | 32 ft | 15 kts | 338° |
| 2026-04-25 06:03 | -0.15166 | 109.40421 | 32 ft | 17 kts | 338° |
| 2026-04-25 06:03 | -0.15056 | 109.40376 | 32 ft | 13 kts | 336° |
| 2026-04-25 06:04 | -0.14994 | 109.40350 | 33 ft | 10 kts | 338° |
| 2026-04-25 06:04 | -0.14925 | 109.40322 | 33 ft | 12 kts | 338° |
| 2026-04-25 06:04 | -0.14877 | 109.40317 | 32 ft | 6 kts | 21° |
| 2026-04-25 06:04 | -0.14850 | 109.40352 | 32 ft | 7 kts | 62° |
| 2026-04-25 06:05 | -0.14806 | 109.40368 | 32 ft | 8 kts | 344° |
| 2026-04-25 06:05 | -0.14760 | 109.40350 | 32 ft | 6 kts | 338° |
| 2026-04-25 06:05 | -0.14739 | 109.40344 | 31 ft | 3 kts | 355° |
| 2026-04-25 06:05 | -0.14720 | 109.40359 | 30 ft | 3 kts | 52° |
| 2026-04-25 06:06 | -0.14711 | 109.40377 | 32 ft | 2 kts | 66° |
| 2026-04-25 06:06 | -0.14707 | 109.40386 | 32 ft | 1 kts | 66° |
| 2026-04-25 06:06 | -0.14706 | 109.40389 | 32 ft | 0 kts | 66° |
| 2026-04-25 06:06 | -0.14705 | 109.40391 | 32 ft | 0 kts | 66° |